createdAt,value
2022-11-13T00:00:17.269Z,13.87
2022-11-13T00:03:04.853Z,16.17
2022-11-13T00:06:00.872Z,14.30
2022-11-13T00:08:49.243Z,16.17
2022-11-13T00:11:37.985Z,15.60
2022-11-13T00:14:25.865Z,15.53
2022-11-13T00:17:13.663Z,15.53
2022-11-13T00:20:01.465Z,17.67
2022-11-13T00:22:49.070Z,17.40
2022-11-13T00:25:37.550Z,16.17
2022-11-13T00:28:27.544Z,17.23
2022-11-13T00:31:16.653Z,17.10
2022-11-13T00:34:20.018Z,16.13
2022-11-13T00:37:12.324Z,17.03
2022-11-13T00:39:59.971Z,20.70
2022-11-13T00:42:47.842Z,15.60
2022-11-13T00:45:36.955Z,19.30
2022-11-13T00:48:25.487Z,21.77
2022-11-13T00:51:13.193Z,20.80
2022-11-13T00:54:00.767Z,16.50
2022-11-13T00:56:48.367Z,12.93
2022-11-13T00:59:35.926Z,18.40
2022-11-13T01:02:24.788Z,15.43
2022-11-13T01:05:12.479Z,16.90
2022-11-13T01:08:00.105Z,14.23
2022-11-13T01:10:53.419Z,15.83
2022-11-13T01:13:42.351Z,19.43
2022-11-13T01:16:30.531Z,17.30
2022-11-13T01:19:19.600Z,16.00
2022-11-13T01:22:07.262Z,17.90
2022-11-13T01:24:54.823Z,20.37
2022-11-13T01:27:42.519Z,15.47
2022-11-13T01:30:30.002Z,17.77
2022-11-13T01:33:17.551Z,15.63
2022-11-13T01:36:09.510Z,17.30
2022-11-13T01:38:58.021Z,18.40
2022-11-13T01:41:45.572Z,17.50
2022-11-13T01:44:49.561Z,20.30
2022-11-13T01:47:37.772Z,20.53
2022-11-13T01:50:25.561Z,20.43
2022-11-13T01:53:14.657Z,16.53
2022-11-13T01:56:02.458Z,19.63
2022-11-13T01:58:55.640Z,17.53
2022-11-13T02:01:43.527Z,19.53
2022-11-13T02:04:32.923Z,19.30
2022-11-13T02:07:22.998Z,17.77
2022-11-13T02:10:12.373Z,14.90
2022-11-13T02:12:59.896Z,16.17
2022-11-13T02:15:48.809Z,16.03
2022-11-13T02:18:37.846Z,14.27
2022-11-13T02:21:37.282Z,18.57
2022-11-13T02:24:32.376Z,15.90
2022-11-13T02:27:27.320Z,15.80
2022-11-13T02:30:23.625Z,17.63
2022-11-13T02:33:24.616Z,15.47
2022-11-13T02:36:14.907Z,16.17
2022-11-13T02:39:07.654Z,15.47
2022-11-13T02:41:56.907Z,17.60
2022-11-13T02:44:44.300Z,17.27
2022-11-13T02:47:31.839Z,13.23
2022-11-13T02:50:19.770Z,17.37
2022-11-13T02:53:07.777Z,16.90
2022-11-13T02:55:55.475Z,17.90
2022-11-13T02:58:44.462Z,18.40
2022-11-13T03:01:32.346Z,19.37
2022-11-13T03:04:19.903Z,16.90
2022-11-13T03:07:07.556Z,15.27
2022-11-13T03:09:55.053Z,20.70
2022-11-13T03:12:43.029Z,15.07
2022-11-13T03:15:32.232Z,13.23
2022-11-13T03:18:19.814Z,16.33
2022-11-13T03:21:10.038Z,18.50
2022-11-13T03:23:58.356Z,16.73
2022-11-13T03:26:45.947Z,18.33
2022-11-13T03:29:33.564Z,13.90
2022-11-13T03:32:22.368Z,16.33
2022-11-13T03:35:10.437Z,16.97
2022-11-13T03:37:57.982Z,14.70
2022-11-13T03:40:45.590Z,17.67
2022-11-13T03:43:33.269Z,21.37
2022-11-13T03:46:21.040Z,17.73
2022-11-13T03:49:10.047Z,17.30
2022-11-13T03:51:57.741Z,15.53
2022-11-13T03:54:45.368Z,15.87
2022-11-13T03:57:33.147Z,17.20
2022-11-13T04:00:20.700Z,20.40
2022-11-13T04:03:08.495Z,20.83
2022-11-13T04:05:57.301Z,16.43
2022-11-13T04:08:44.994Z,17.03
2022-11-13T04:11:32.876Z,21.13
2022-11-13T04:14:20.417Z,21.57
2022-11-13T04:17:08.085Z,22.93
2022-11-13T04:19:55.561Z,21.07
2022-11-13T04:22:44.632Z,19.70
2022-11-13T04:25:32.130Z,18.67
2022-11-13T04:28:19.620Z,17.47
2022-11-13T04:31:07.703Z,20.30
2022-11-13T04:33:55.456Z,26.73
2022-11-13T04:36:42.871Z,23.20
2022-11-13T04:39:31.833Z,22.37
2022-11-13T04:42:37.116Z,21.63
2022-11-13T04:45:27.399Z,18.83
2022-11-13T04:48:15.003Z,20.30
2022-11-13T04:51:02.525Z,21.77
2022-11-13T04:53:50.017Z,20.20
2022-11-13T04:56:38.976Z,16.43
2022-11-13T04:59:26.856Z,18.53
2022-11-13T05:02:14.288Z,19.47
2022-11-13T05:05:05.266Z,15.80
2022-11-13T05:07:54.208Z,20.07
2022-11-13T05:10:41.840Z,17.33
2022-11-13T05:13:32.887Z,22.53
2022-11-13T05:16:20.605Z,17.63
2022-11-13T05:19:08.585Z,19.87
2022-11-13T05:21:56.098Z,17.27
2022-11-13T05:24:43.976Z,18.37
2022-11-13T05:27:32.353Z,16.23
2022-11-13T05:30:21.410Z,13.00
2022-11-13T05:33:09.265Z,14.53
2022-11-13T05:35:57.196Z,16.77
2022-11-13T05:38:45.019Z,21.23
2022-11-13T05:41:32.813Z,16.77
2022-11-13T05:44:20.211Z,16.47
2022-11-13T05:47:09.156Z,22.77
2022-11-13T05:49:56.938Z,18.63
2022-11-13T05:52:44.422Z,20.50
2022-11-13T05:55:32.039Z,21.53
2022-11-13T05:58:19.703Z,23.87
2022-11-13T06:01:09.377Z,23.20
2022-11-13T06:03:59.623Z,20.87
2022-11-13T06:06:47.157Z,26.03
2022-11-13T06:09:34.600Z,23.53
2022-11-13T06:12:22.287Z,31.40
2022-11-13T06:15:10.764Z,28.87
2022-11-13T06:17:58.223Z,31.03
2022-11-13T06:20:47.103Z,24.57
2022-11-13T06:23:35.876Z,27.70
2022-11-13T06:26:26.819Z,27.97
2022-11-13T06:29:15.648Z,29.43
2022-11-13T06:32:03.390Z,25.53
2022-11-13T06:34:51.075Z,25.30
2022-11-13T06:37:39.956Z,30.83
2022-11-13T06:40:27.412Z,28.83
2022-11-13T06:43:14.874Z,25.27
2022-11-13T06:46:06.148Z,27.57
2022-11-13T06:48:53.964Z,24.27
2022-11-13T06:51:41.622Z,28.67
2022-11-13T06:54:30.490Z,25.87
2022-11-13T06:57:18.369Z,25.97
2022-11-13T07:00:07.551Z,25.10
2022-11-13T07:02:55.091Z,29.57
2022-11-13T07:05:42.693Z,27.93
2022-11-13T07:08:30.656Z,33.17
2022-11-13T07:11:23.120Z,24.00
2022-11-13T07:14:12.427Z,26.83
2022-11-13T07:17:10.116Z,24.23
2022-11-13T07:19:58.546Z,26.87
2022-11-13T07:22:46.578Z,25.73
2022-11-13T07:25:34.519Z,28.60
2022-11-13T07:28:23.949Z,27.37
2022-11-13T07:31:13.515Z,27.73
2022-11-13T07:34:01.246Z,32.63
2022-11-13T07:36:48.711Z,26.30
2022-11-13T07:39:36.159Z,29.47
2022-11-13T07:42:23.599Z,25.70
2022-11-13T07:45:12.617Z,23.93
2022-11-13T07:48:00.810Z,26.73
2022-11-13T07:50:48.936Z,29.10
2022-11-13T07:53:38.905Z,27.90
2022-11-13T07:56:27.220Z,24.47
2022-11-13T07:59:14.892Z,30.47
2022-11-13T08:02:04.317Z,26.03
2022-11-13T08:04:51.839Z,23.60
2022-11-13T08:07:39.243Z,24.10
2022-11-13T08:10:26.884Z,24.00
2022-11-13T08:13:14.869Z,22.43
2022-11-13T08:16:03.045Z,22.30
2022-11-13T08:18:52.986Z,24.33
2022-11-13T08:21:40.676Z,24.33
2022-11-13T08:24:29.008Z,20.10
2022-11-13T08:27:17.124Z,24.50
2022-11-13T08:30:06.549Z,24.20
2022-11-13T08:32:56.019Z,26.77
2022-11-13T08:35:52.839Z,25.53
2022-11-13T08:38:42.109Z,26.43
2022-11-13T08:41:30.801Z,23.10
2022-11-13T08:44:19.618Z,28.43
2022-11-13T08:47:08.540Z,27.53
2022-11-13T08:49:57.294Z,26.27
2022-11-13T08:52:47.851Z,24.53
2022-11-13T08:55:36.175Z,27.93
2022-11-13T08:58:24.338Z,25.70
2022-11-13T09:01:11.948Z,27.43
2022-11-13T09:03:59.520Z,26.83
2022-11-13T09:06:47.659Z,25.23
2022-11-13T09:09:37.741Z,24.40
2022-11-13T09:12:26.180Z,25.93
2022-11-13T09:15:15.346Z,24.47
2022-11-13T09:18:06.379Z,22.43
2022-11-13T09:20:54.933Z,23.87
2022-11-13T09:23:43.721Z,25.10
2022-11-13T09:26:33.460Z,25.57
2022-11-13T09:29:23.411Z,23.43
2022-11-13T09:32:12.602Z,26.23
2022-11-13T09:35:01.577Z,24.97
2022-11-13T09:37:54.201Z,24.53
2022-11-13T09:40:49.282Z,22.57
2022-11-13T09:43:44.531Z,27.33
2022-11-13T09:46:38.370Z,25.50
2022-11-13T09:49:30.937Z,28.43
2022-11-13T09:52:22.996Z,25.37
2022-11-13T09:55:15.518Z,26.40
2022-11-13T09:58:13.239Z,23.67
2022-11-13T10:01:04.245Z,25.07
2022-11-13T10:04:02.392Z,29.23
2022-11-13T10:07:05.755Z,32.47
2022-11-13T10:10:28.897Z,25.80
2022-11-13T10:13:22.203Z,30.07
2022-11-13T10:16:30.933Z,28.33
2022-11-13T10:19:26.152Z,30.73
2022-11-13T10:22:36.048Z,31.23
2022-11-13T10:25:27.904Z,28.03
2022-11-13T10:28:50.184Z,28.63
2022-11-13T10:31:30.531Z,26.47
2022-11-13T10:34:20.113Z,29.57
2022-11-13T10:37:28.257Z,30.90
2022-11-13T10:40:26.072Z,24.83
2022-11-13T10:43:17.195Z,28.40
2022-11-13T10:46:06.440Z,27.30
2022-11-13T10:48:55.423Z,30.57
2022-11-13T10:51:43.127Z,31.80
2022-11-13T10:54:32.743Z,30.27
2022-11-13T10:57:28.916Z,31.10
2022-11-13T11:00:26.527Z,30.00
2022-11-13T11:03:19.441Z,30.27
2022-11-13T11:06:09.540Z,23.27
2022-11-13T11:09:08.403Z,33.23
2022-11-13T11:12:22.096Z,26.83
2022-11-13T11:15:25.598Z,25.33
2022-11-13T11:18:25.799Z,24.23
2022-11-13T11:21:21.054Z,23.03
2022-11-13T11:24:15.149Z,24.43
2022-11-13T11:27:07.142Z,22.13
2022-11-13T11:30:04.582Z,22.53
2022-11-13T11:32:58.467Z,20.50
2022-11-13T11:35:50.726Z,26.63
2022-11-13T11:38:51.669Z,23.53
2022-11-13T11:41:47.305Z,25.17
2022-11-13T11:44:48.636Z,22.53
2022-11-13T11:47:36.500Z,16.30
2022-11-13T11:50:34.207Z,18.47
2022-11-13T11:53:31.171Z,19.73
2022-11-13T11:56:26.146Z,21.43
2022-11-13T11:59:32.243Z,23.40
2022-11-13T12:02:48.231Z,19.50
2022-11-13T12:05:45.021Z,19.37
2022-11-13T12:08:44.765Z,18.83
2022-11-13T12:11:36.146Z,19.00
2022-11-13T12:14:37.222Z,22.53
2022-11-13T12:17:41.786Z,17.23
2022-11-13T12:20:39.163Z,21.87
2022-11-13T12:23:38.314Z,23.10
2022-11-13T12:26:31.908Z,18.17
2022-11-13T12:29:39.255Z,19.80
2022-11-13T12:32:42.835Z,14.53
2022-11-13T12:35:32.019Z,17.00
2022-11-13T12:38:31.754Z,17.73
2022-11-13T12:41:29.372Z,14.57
2022-11-13T12:44:27.275Z,14.70
2022-11-13T12:47:15.710Z,14.43
2022-11-13T12:50:05.941Z,13.17
2022-11-13T12:53:00.967Z,16.43
2022-11-13T12:56:00.202Z,17.37
2022-11-13T12:59:23.813Z,17.17
2022-11-13T13:02:30.616Z,16.37
2022-11-13T13:05:39.814Z,15.37
2022-11-13T13:08:47.314Z,16.13
2022-11-13T13:11:44.824Z,16.23
2022-11-13T13:14:53.140Z,15.17
2022-11-13T13:17:42.518Z,16.00
2022-11-13T13:20:34.892Z,17.63
2022-11-13T13:23:29.784Z,19.27
2022-11-13T13:26:20.787Z,25.17
2022-11-13T13:29:20.402Z,16.07
2022-11-13T13:32:20.747Z,14.83
2022-11-13T13:35:16.407Z,15.37
2022-11-13T13:38:13.707Z,20.07
2022-11-13T13:41:22.409Z,15.40
2022-11-13T13:44:36.816Z,16.23
2022-11-13T13:47:29.797Z,15.67
2022-11-13T13:50:22.649Z,18.60
2022-11-13T13:53:13.328Z,19.33
2022-11-13T13:56:03.725Z,16.80
2022-11-13T13:58:52.055Z,24.67
2022-11-13T14:01:39.653Z,18.63
2022-11-13T14:04:28.999Z,21.23
2022-11-13T14:07:24.599Z,23.87
2022-11-13T14:10:18.095Z,24.10
2022-11-13T14:13:06.296Z,25.33
2022-11-13T14:16:04.239Z,23.47
2022-11-13T14:18:51.921Z,29.30
2022-11-13T14:21:39.987Z,29.67
2022-11-13T14:24:34.010Z,28.23
2022-11-13T14:27:25.771Z,35.93
2022-11-13T14:30:25.453Z,27.67
2022-11-13T14:33:18.563Z,27.83
2022-11-13T14:36:07.930Z,28.13
2022-11-13T14:38:55.883Z,29.53
2022-11-13T14:41:51.438Z,26.53
2022-11-13T14:44:39.498Z,28.50
2022-11-13T14:47:31.775Z,28.23
2022-11-13T14:50:25.459Z,28.83
2022-11-13T14:53:13.699Z,29.47
2022-11-13T14:56:04.653Z,26.17
2022-11-13T14:58:53.741Z,27.73
2022-11-13T15:01:41.715Z,27.73
2022-11-13T15:04:29.457Z,27.33
2022-11-13T15:07:29.617Z,28.03
2022-11-13T15:10:21.031Z,28.50
2022-11-13T15:13:13.255Z,23.23
2022-11-13T15:16:02.247Z,26.03
2022-11-13T15:18:53.369Z,25.17
2022-11-13T15:21:44.893Z,21.37
2022-11-13T15:24:35.655Z,21.43
2022-11-13T15:27:26.300Z,21.47
2022-11-13T15:30:14.335Z,23.63
2022-11-13T15:33:03.691Z,19.57
2022-11-13T15:35:51.834Z,23.87
2022-11-13T15:38:40.684Z,16.87
2022-11-13T15:41:32.822Z,18.20
2022-11-13T15:44:20.686Z,14.47
2022-11-13T15:47:23.619Z,17.07
2022-11-13T15:50:15.270Z,14.10
2022-11-13T15:53:05.633Z,13.17
2022-11-13T15:55:53.817Z,14.30
2022-11-13T15:58:41.752Z,13.97
2022-11-13T16:01:29.381Z,14.27
2022-11-13T16:04:17.276Z,12.40
2022-11-13T16:07:07.127Z,12.07
2022-11-13T16:09:55.667Z,12.93
2022-11-13T16:12:45.684Z,9.70
2022-11-13T16:15:33.397Z,8.87
2022-11-13T16:18:25.064Z,10.80
2022-11-13T16:21:14.669Z,9.87
2022-11-13T16:24:03.723Z,13.87
2022-11-13T16:26:56.728Z,10.10
2022-11-13T16:29:45.183Z,10.67
2022-11-13T16:32:32.743Z,8.10
2022-11-13T16:35:21.308Z,7.30
2022-11-13T16:38:13.750Z,7.93
2022-11-13T16:41:02.748Z,10.53
2022-11-13T16:43:50.295Z,11.53
2022-11-13T16:46:41.646Z,10.43
2022-11-13T16:49:29.030Z,9.83
2022-11-13T16:52:16.604Z,10.83
2022-11-13T16:55:06.664Z,9.90
2022-11-13T16:57:55.672Z,9.27
2022-11-13T17:00:43.369Z,7.83
2022-11-13T17:03:31.392Z,9.57
2022-11-13T17:06:26.472Z,7.80
2022-11-13T17:09:14.058Z,8.37
2022-11-13T17:12:01.496Z,9.53
2022-11-13T17:14:50.526Z,8.57
2022-11-13T17:17:38.301Z,7.93
2022-11-13T17:20:26.275Z,6.77
2022-11-13T17:23:16.266Z,6.23
2022-11-13T17:26:05.260Z,4.93
2022-11-13T17:28:53.324Z,7.70
2022-11-13T17:31:42.144Z,7.73
2022-11-13T17:34:29.904Z,8.37
2022-11-13T17:37:18.836Z,5.20
2022-11-13T17:40:10.726Z,5.57
2022-11-13T17:42:58.458Z,6.57
2022-11-13T17:45:49.610Z,9.93
2022-11-13T17:48:39.173Z,5.70
2022-11-13T17:51:26.756Z,5.83
2022-11-13T17:54:14.764Z,6.60
2022-11-13T17:57:03.083Z,6.47
2022-11-13T17:59:50.705Z,5.57
2022-11-13T18:02:39.434Z,5.90
2022-11-13T18:05:28.692Z,5.03
2022-11-13T18:08:16.337Z,5.80
2022-11-13T18:11:09.252Z,5.00
2022-11-13T18:13:57.212Z,5.30
2022-11-13T18:16:45.084Z,4.60
2022-11-13T18:19:33.135Z,7.43
2022-11-13T18:22:22.939Z,6.67
2022-11-13T18:25:11.231Z,8.80
2022-11-13T18:27:59.304Z,6.40
2022-11-13T18:30:49.722Z,8.07
2022-11-13T18:33:40.376Z,4.97
2022-11-13T18:36:28.157Z,6.83
2022-11-13T18:39:17.226Z,4.53
2022-11-13T18:42:05.345Z,3.80
2022-11-13T18:44:53.145Z,4.83
2022-11-13T18:47:40.564Z,4.97
2022-11-13T18:50:28.369Z,6.23
2022-11-13T18:53:16.252Z,7.10
2022-11-13T18:56:07.119Z,7.40
2022-11-13T18:58:56.056Z,6.80
2022-11-13T19:01:43.926Z,6.67
2022-11-13T19:04:31.806Z,8.47
2022-11-13T19:07:19.649Z,6.17
2022-11-13T19:10:08.228Z,5.97
2022-11-13T19:12:57.180Z,8.10
2022-11-13T19:15:44.933Z,7.13
2022-11-13T19:18:32.898Z,7.33
2022-11-13T19:21:21.621Z,6.90
2022-11-13T19:24:10.175Z,6.63
2022-11-13T19:26:57.673Z,6.17
2022-11-13T19:29:46.670Z,5.93
2022-11-13T19:32:34.608Z,8.10
2022-11-13T19:35:22.363Z,6.57
2022-11-13T19:38:10.177Z,6.23
2022-11-13T19:40:57.900Z,8.20
2022-11-13T19:43:45.858Z,6.03
2022-11-13T19:46:35.080Z,8.63
2022-11-13T19:49:23.048Z,8.17
2022-11-13T19:52:10.677Z,6.67
2022-11-13T19:54:58.519Z,9.80
2022-11-13T19:57:46.373Z,10.07
2022-11-13T20:00:34.527Z,8.00
2022-11-13T20:03:24.456Z,8.70
2022-11-13T20:06:13.549Z,10.00
2022-11-13T20:09:02.566Z,11.27
2022-11-13T20:11:50.765Z,9.80
2022-11-13T20:14:38.743Z,10.73
2022-11-13T20:17:26.427Z,13.33
2022-11-13T20:20:15.554Z,14.47
2022-11-13T20:23:03.115Z,13.33
2022-11-13T20:25:55.446Z,14.10
2022-11-13T20:28:43.244Z,12.47
2022-11-13T20:31:31.358Z,14.63
2022-11-13T20:34:19.612Z,13.83
2022-11-13T20:37:08.474Z,15.87
2022-11-13T20:39:57.274Z,13.93
2022-11-13T20:42:45.227Z,18.73
2022-11-13T20:45:33.066Z,13.83
2022-11-13T20:48:20.763Z,14.90
2022-11-13T20:51:09.842Z,16.77
2022-11-13T20:53:59.341Z,15.53
2022-11-13T20:56:47.005Z,17.63
2022-11-13T20:59:34.598Z,17.97
2022-11-13T21:02:22.170Z,16.80
2022-11-13T21:05:09.950Z,17.80
2022-11-13T21:07:57.477Z,18.00
2022-11-13T21:10:46.632Z,17.07
2022-11-13T21:13:34.566Z,19.60
2022-11-13T21:16:22.209Z,21.40
2022-11-13T21:19:11.549Z,20.80
2022-11-13T21:21:59.430Z,25.13
2022-11-13T21:24:47.123Z,21.33
2022-11-13T21:27:35.998Z,22.20
2022-11-13T21:30:24.110Z,23.73
2022-11-13T21:33:12.011Z,23.97
2022-11-13T21:36:05.752Z,23.30
2022-11-13T21:38:54.437Z,22.60
2022-11-13T21:41:41.944Z,21.83
2022-11-13T21:44:30.766Z,25.37
2022-11-13T21:47:18.652Z,24.03
2022-11-13T21:50:07.261Z,24.83
2022-11-13T21:52:54.903Z,22.37
2022-11-13T21:55:50.281Z,22.40
2022-11-13T21:58:39.990Z,24.57
2022-11-13T22:01:33.755Z,23.73
2022-11-13T22:04:25.230Z,23.10
2022-11-13T22:07:12.971Z,22.10
2022-11-13T22:10:06.948Z,21.40
2022-11-13T22:12:56.549Z,20.47
2022-11-13T22:15:44.443Z,25.73
2022-11-13T22:18:33.600Z,22.80
2022-11-13T22:21:21.734Z,25.60
2022-11-13T22:24:10.506Z,24.97
2022-11-13T22:26:58.468Z,22.70
2022-11-13T22:29:46.181Z,26.50
2022-11-13T22:32:33.879Z,26.23
2022-11-13T22:35:22.994Z,29.80
2022-11-13T22:38:11.392Z,25.70
2022-11-13T22:41:04.490Z,27.67
2022-11-13T22:43:54.283Z,25.77
2022-11-13T22:46:43.145Z,27.83
2022-11-13T22:49:30.745Z,27.03
2022-11-13T22:52:19.933Z,29.77
2022-11-13T22:55:08.573Z,25.87
2022-11-13T22:57:58.733Z,27.23
2022-11-13T23:00:46.146Z,27.77
2022-11-13T23:03:33.935Z,28.50
2022-11-13T23:06:25.092Z,25.87
2022-11-13T23:09:14.136Z,25.60
2022-11-13T23:12:01.659Z,28.70
2022-11-13T23:14:49.271Z,27.83
2022-11-13T23:17:36.936Z,25.03
2022-11-13T23:20:24.600Z,27.17
2022-11-13T23:23:12.872Z,26.10
2022-11-13T23:26:01.978Z,26.60
2022-11-13T23:28:49.720Z,28.27
2022-11-13T23:31:37.224Z,28.57
2022-11-13T23:34:45.544Z,27.40
2022-11-13T23:37:32.457Z,28.87
2022-11-13T23:40:19.961Z,31.10
2022-11-13T23:43:09.228Z,25.87
2022-11-13T23:45:57.140Z,30.57
2022-11-13T23:48:44.685Z,27.17
2022-11-13T23:51:32.240Z,27.07
2022-11-13T23:54:19.861Z,32.17
2022-11-13T23:57:07.266Z,28.93
2022-11-13T23:59:56.135Z,24.33
